Flight Track Log - Related Links

Times and Time Zones

All times are in EST time to prevent confusion due to time zone crossing. See the SWA1974 flight status page for this flight to view local times or setup timezone preferences in your user account.

Time Position Orientation Groundspeed Altitude Reporting Facility
EST Latitude Longitude Course Direction KTS MPH feet Rate Location/Type
Mon 05:48:08 PM 33.4333 -112.0333 270° West 107 123 1,600  Level Phoenix TRACON
Mon 05:48:38 PM 33.4333 -112.0500 270° West 171 197 2,700 1,892 Climbing Phoenix TRACON
Mon 05:49:59 PM 33.4331 -112.1336 270° West 205 236 5,100 2,056 Climbing Albuquerque Center
Mon 05:51:01 PM 33.4692 -112.1958 305° West 267 307 7,600 3,048 Climbing Albuquerque Center
Mon 05:52:03 PM 33.5611 -112.1744 11° North 283 326 11,400 3,220 Climbing Albuquerque Center
Mon 05:53:04 PM 33.6503 -112.2008 346° North 332 382 14,200 2,780 Climbing Albuquerque Center
Mon 05:54:06 PM 33.7408 -112.2339 343° North 338 389 17,100 2,661 Climbing Albuquerque Center
Mon 05:55:08 PM 33.8422 -112.2675 345° North 358 412 19,700 2,371 Climbing Albuquerque Center
Mon 05:56:10 PM 33.9428 -112.3042 343° North 374 430 22,000 2,098 Climbing Albuquerque Center
Mon 05:57:11 PM 34.0447 -112.3419 343° North 389 448 24,000 439 Climbing Albuquerque Center
Mon 05:58:13 PM 34.1417 -112.4047 332° Northwest 392 451 22,900 -968 Descending Albuquerque Center
Mon 05:59:15 PM 34.2353 -112.4617 333° Northwest 380 437 22,000 -435 Descending Albuquerque Center
Mon 06:00:17 PM 34.3397 -112.5289 332° Northwest 366 421 22,000  Level Albuquerque Center
Mon 06:01:18 PM 34.4300 -112.5847 333° Northwest 362 417 22,000  Level Albuquerque Center
Mon 06:02:20 PM 34.5217 -112.6394 334° Northwest 366 421 22,000  Level Albuquerque Center
Mon 06:03:22 PM 34.5886 -112.7308 312° West 385 443 22,000  Level Albuquerque Center
Mon 06:04:23 PM 34.6469 -112.8303 306° West 369 425 22,000  Level Albuquerque Center
Mon 06:05:25 PM 34.7044 -112.9322 304° West 368 423 22,000  Level Albuquerque Center
Mon 06:06:27 PM 34.7617 -113.0356 304° West 368 423 22,000  Level Albuquerque Center
Mon 06:07:29 PM 34.8314 -113.1592 305° West 369 425 22,000  Level Albuquerque Center
Mon 06:08:30 PM 34.8889 -113.2622 304° West 369 425 22,000  Level Albuquerque Center
Mon 06:09:32 PM 34.9458 -113.3633 305° West 366 421 22,000  Level Albuquerque Center
Mon 06:10:34 PM 35.0017 -113.4644 304° West 361 415 22,000  Level Albuquerque Center
Mon 06:11:36 PM 35.0583 -113.5675 304° West 364 419 22,000  Level Albuquerque Center
Mon 06:12:37 PM 35.1142 -113.6694 304° West 363 418 22,000  Level Albuquerque Center
Mon 06:13:39 PM 35.1706 -113.7703 304° West 361 415 22,000  Level Albuquerque Center
Mon 06:14:41 PM 35.2367 -113.8939 303° West 362 417 22,000  Level Albuquerque Center
Mon 06:15:53 PM 35.3119 -113.9828 316° Northwest 355 409 22,000 -806 Level Los Angeles Center
Mon 06:16:55 PM 35.4094 -114.0728 323° Northwest 365 420 20,200 -1,645 Descending Los Angeles Center
Mon 06:17:57 PM 35.4869 -114.1442 323° Northwest 375 432 18,600 -1,887 Descending Los Angeles Center
Mon 06:18:59 PM 35.5697 -114.2225 322° Northwest 348 400 16,300 -2,103 Descending Los Angeles Center
Mon 06:19:54 PM 35.6358 -114.2850 322° Northwest 329 379 14,500 -1,839 Descending Los Angeles Center
Mon 06:20:01 PM 35.6375 -114.2861 332° Northwest 326 375 14,400 -1,391 Descending Los Angeles Center
Mon 06:21:03 PM 35.6931 -114.3369 323° Northwest 316 364 12,900 -1,252 Descending Los Angeles Center
Mon 06:21:56 PM 35.7697 -114.3986 327° Northwest 282 325 12,000 -871 Descending Los Angeles Center
Mon 06:22:05 PM 35.7747 -114.3986 360° North 286 329 12,000 -689 Level Los Angeles Center
Mon 06:22:57 PM 35.8403 -114.4519 327° Northwest 279 321 11,300 -774 Descending Los Angeles Center
Mon 06:23:07 PM 35.8500 -114.4606 324° Northwest 280 322 11,200 -885 Descending Los Angeles Center
Mon 06:23:58 PM 35.8967 -114.5206 314° West 287 330 10,400 -968 Descending Los Angeles Center
Mon 06:24:09 PM 35.9067 -114.5292 325° Northwest 285 328 10,200 -1,111 Descending Los Angeles Center
Mon 06:24:52 PM 35.9489 -114.5800 316° Northwest 281 323 9,400 -1,048 Descending Los Angeles Center
Mon 06:25:12 PM 35.9611 -114.5953 315° West 277 319 9,100 -1,075 Descending Los Angeles Center
Mon 06:25:59 PM 36.0022 -114.6447 316° Northwest 256 295 8,200 -1,065 Descending Los Angeles Center
Mon 06:26:14 PM 36.0117 -114.6542 321° Northwest 258 297 8,000 -218 Descending Los Angeles Center
Mon 06:26:54 PM 36.0461 -114.6964 315° West 238 274 8,000  Level Los Angeles Center
Mon 06:27:16 PM 36.0572 -114.7094 316° Northwest 238 274 8,000 -492 Level Los Angeles Center
Mon 06:27:55 PM 36.0736 -114.7617 291° West 234 269 7,500 -677 Descending Los Angeles Center
Mon 06:28:18 PM 36.0728 -114.7803 267° West 228 262 7,300 -885 Descending Los Angeles Center
Mon 06:28:56 PM 36.0708 -114.8478 268° West 233 268 6,600 -1,065 Descending Los Angeles Center
Mon 06:29:20 PM 36.0717 -114.8786 272° West 236 272 6,200 -1,343 Descending Los Angeles Center
Mon 06:30:03 PM 36.0728 -114.9350 271° West 235 270 5,100 -1,355 Descending Los Angeles Center
Mon 06:30:22 PM 36.0731 -114.9539 271° West 212 244 4,800 -1,082 Descending Los Angeles Center
Mon 06:31:04 PM 36.0736 -114.9986 271° West 187 215 4,000 -1,161 Descending Los Angeles Center
Mon 06:31:24 PM 36.0736 -115.0203 270° West 180 207 3,600 -800 Descending Los Angeles Center
Mon 06:32:04 PM 36.0731 -115.0547 269° West 161 185 3,200 -677 Descending Los Angeles Center
Mon 06:32:26 PM 36.0736 -115.0728 272° West 157 181 2,900 -787 Descending Los Angeles Center
Mon 06:33:05 PM 36.0739 -115.1078 271° West 147 169 2,400 -871 Descending Los Angeles Center
Mon 06:33:28 PM 36.0731 -115.1264 267° West 147 169 2,000 -1,043 Descending Los Angeles Center
Mon 06:35:00 PM 36.0667 -115.1500 270° West  Level FlightAware Approximate

Login

Don't have an account? Register now (free) for customized features, flight alerts, and more!